Time;durP1;ratioP1;P1;durP2;ratioP2;P2;SDS_P1;SDS_P2;PMS_P1;PMS_P2;Temp;Humidity;BMP_temperature;BMP_pressure;BME280_temperature;BME280_humidity;BME280_pressure;Samples;Min_cycle;Max_cycle;Signal;HPM_P1;HPM_P2
2022/06/22 00:02:00;;;;;;;8.27;5.90;;;11.70;99.90;;;;;;5051778;28;20045;-67
2022/06/22 00:04:28;;;;;;;8.52;6.10;;;;;;;;;;5051565;28;20048;-67
2022/06/22 00:06:55;;;;;;;11.25;7.28;;;;;;;;;;5053017;28;20132;-67
2022/06/22 00:09:32;;;;;;;8.68;5.97;;;;;;;;;;5053288;28;20048;-67
2022/06/22 00:11:59;;;;;;;9.10;6.55;;;;;;;;;;5051017;28;20087;-67
2022/06/22 00:14:26;;;;;;;8.98;6.68;;;;;;;;;;5053240;28;20379;-67
2022/06/22 00:16:53;;;;;;;9.70;7.30;;;;;;;;;;5051522;28;20094;-67
2022/06/22 00:19:22;;;;;;;9.93;6.85;;;;;;;;;;5052531;28;20051;-67
2022/06/22 00:21:49;;;;;;;11.35;6.70;;;;;;;;;;5052955;28;20120;-67
2022/06/22 00:24:24;;;;;;;7.82;5.53;;;;;;;;;;5052336;28;20036;-67
2022/06/22 00:27:13;;;;;;;8.23;6.05;;;;;;;;;;5052688;28;20049;-67
2022/06/22 00:29:39;;;;;;;9.35;6.32;;;11.30;99.90;;;;;;5044184;28;20136;-67
2022/06/22 00:32:17;;;;;;;9.52;6.25;;;11.50;99.90;;;;;;5050476;28;20581;-67
2022/06/22 00:34:42;;;;;;;9.75;6.68;;;11.40;99.90;;;;;;5052754;28;20076;-67
2022/06/22 00:37:21;;;;;;;10.27;7.28;;;11.40;99.90;;;;;;5051549;28;21161;-67
2022/06/22 00:39:52;;;;;;;10.18;6.82;;;11.30;99.90;;;;;;5050634;28;20045;-67
2022/06/22 00:42:42;;;;;;;9.23;6.28;;;11.30;99.90;;;;;;5051903;28;20390;-67
2022/06/22 00:45:13;;;;;;;9.98;5.93;;;;;;;;;;5052428;28;20033;-67
2022/06/22 00:47:54;;;;;;;11.95;7.40;;;11.30;99.90;;;;;;5052497;28;20056;-67
2022/06/22 00:50:44;;;;;;;8.52;6.05;;;11.20;99.90;;;;;;5050733;28;20509;-67
2022/06/22 00:53:18;;;;;;;8.88;5.97;;;;;;;;;;5050337;28;20049;-67
2022/06/22 00:56:05;;;;;;;7.90;6.13;;;11.20;99.90;;;;;;5052229;28;20055;-67
2022/06/22 00:58:42;;;;;;;8.65;6.15;;;11.20;99.90;;;;;;5051210;28;20044;-67
2022/06/22 01:01:14;;;;;;;8.85;6.18;;;11.20;99.90;;;;;;5050139;28;20052;-67
2022/06/22 01:03:54;;;;;;;9.80;5.85;;;11.10;99.90;;;;;;5051109;28;20052;-67
2022/06/22 01:06:29;;;;;;;8.68;6.07;;;11.10;99.90;;;;;;5050701;28;20067;-67
2022/06/22 01:09:05;;;;;;;9.77;6.20;;;11.10;99.90;;;;;;5050560;28;20049;-67
2022/06/22 01:14:36;;;;;;;11.95;6.65;;;11.00;99.90;;;;;;5051361;28;20048;-67
2022/06/22 01:17:06;;;;;;;9.98;6.65;;;11.00;99.90;;;;;;5050735;28;20087;-67
2022/06/22 01:19:50;;;;;;;8.38;6.40;;;11.50;99.90;;;;;;5034511;28;20103;-67
2022/06/22 01:22:16;;;;;;;7.72;5.60;;;;;;;;;;5050230;28;20080;-67
2022/06/22 01:25:13;;;;;;;9.13;6.43;;;11.20;99.90;;;;;;5050817;28;20044;-67
2022/06/22 01:27:41;;;;;;;8.90;6.38;;;11.10;99.90;;;;;;5050307;28;20389;-67
2022/06/22 01:30:16;;;;;;;9.20;5.78;;;10.90;99.90;;;;;;5051775;28;20037;-68
2022/06/22 01:32:43;;;;;;;8.95;5.68;;;11.00;99.90;;;;;;5051164;28;20045;-68
2022/06/22 01:35:22;;;;;;;10.02;6.38;;;11.20;99.90;;;;;;5049826;28;20057;-67
2022/06/22 01:37:49;;;;;;;9.10;6.93;;;;;;;;;;5052004;28;20041;-67
2022/06/22 01:40:35;;;;;;;10.05;6.82;;;10.80;99.90;;;;;;5052191;28;20037;-67
2022/06/22 01:43:13;;;;;;;9.23;6.85;;;11.00;99.90;;;;;;5050622;28;20045;-67
2022/06/22 01:45:49;;;;;;;11.90;6.90;;;11.30;99.90;;;;;;5051801;28;20064;-67
2022/06/22 01:48:37;;;;;;;8.55;5.60;;;10.90;99.90;;;;;;5034239;28;20091;-67
2022/06/22 01:51:24;;;;;;;9.65;6.50;;;10.90;99.90;;;;;;5051359;28;20057;-67
2022/06/22 01:53:58;;;;;;;10.23;6.40;;;11.20;99.90;;;;;;5050016;28;20049;-67
2022/06/22 01:56:39;;;;;;;10.25;6.45;;;10.90;99.90;;;;;;5051305;28;20120;-67
2022/06/22 01:59:11;;;;;;;7.40;5.50;;;;;;;;;;5051373;28;20501;-67
2022/06/22 02:01:50;;;;;;;9.43;5.97;;;10.70;99.90;;;;;;5053166;28;20116;-67
2022/06/22 02:04:30;;;;;;;8.35;6.40;;;10.70;99.90;;;;;;5055015;28;20045;-67
2022/06/22 02:09:54;;;;;;;8.20;5.78;;;;;;;;;;5053296;28;20060;-67
2022/06/22 02:12:26;;;;;;;8.65;5.53;;;;;;;;;;5054448;28;20048;-67
2022/06/22 02:14:56;;;;;;;7.50;5.20;;;;;;;;;;5054849;28;20052;-67
2022/06/22 02:17:24;;;;;;;7.22;4.82;;;;;;;;;;5055035;28;20136;-67
2022/06/22 02:20:09;;;;;;;8.65;4.82;;;;;;;;;;5055091;28;20402;-67
2022/06/22 02:22:35;;;;;;;8.60;5.55;;;;;;;;;;5054088;28;20124;-67
2022/06/22 02:25:01;;;;;;;8.40;5.60;;;;;;;;;;5053919;28;20044;-67
2022/06/22 02:27:29;;;;;;;8.15;6.10;;;;;;;;;;5054136;28;20055;-67
2022/06/22 02:29:57;;;;;;;8.43;5.05;;;;;;;;;;5037014;28;20040;-67
2022/06/22 02:32:31;;;;;;;10.23;5.35;;;10.60;99.90;;;;;;5054601;28;20037;-67
2022/06/22 02:34:57;;;;;;;8.73;5.68;;;10.70;99.90;;;;;;5053672;28;20041;-67
2022/06/22 02:37:28;;;;;;;7.43;5.03;;;11.00;99.90;;;;;;5055310;28;20033;-67
2022/06/22 02:39:57;;;;;;;8.68;5.65;;;10.10;99.90;;;;;;5053821;28;20099;-67
2022/06/22 02:45:28;;;;;;;8.75;5.22;;;10.40;99.90;;;;;;5012235;28;20092;-67
2022/06/22 02:47:59;;;;;;;7.28;4.60;;;10.30;99.90;;;;;;4996412;28;20128;-67
2022/06/22 02:50:30;;;;;;;9.48;4.90;;;10.30;99.90;;;;;;5023610;28;20114;-67
2022/06/22 02:53:00;;;;;;;7.78;4.55;;;10.20;99.90;;;;;;5053539;28;20052;-67
2022/06/22 02:55:32;;;;;;;8.80;4.72;;;11.00;99.90;;;;;;5054698;28;20474;-67
2022/06/22 02:57:59;;;;;;;7.60;4.75;;;10.40;99.90;;;;;;5053291;28;20037;-67
2022/06/22 03:00:38;;;;;;;7.57;4.63;;;10.40;99.90;;;;;;5053170;28;20041;-67
2022/06/22 03:03:13;;;;;;;9.20;5.80;;;10.30;99.90;;;;;;5053165;28;20102;-67
2022/06/22 03:05:42;;;;;;;8.60;4.95;;;10.40;99.90;;;;;;5054662;28;20132;-67
2022/06/22 03:08:11;;;;;;;9.68;4.85;;;10.40;99.90;;;;;;5035818;28;20037;-67
2022/06/22 03:10:53;;;;;;;9.85;5.38;;;11.10;99.90;;;;;;5054700;28;20461;-67
2022/06/22 03:13:28;;;;;;;10.63;4.57;;;10.40;99.90;;;;;;5052077;28;20099;-67
2022/06/22 03:15:54;;;;;;;8.07;4.95;;;10.30;99.90;;;;;;5052890;28;20049;-67
2022/06/22 03:18:24;;;;;;;8.82;5.22;;;10.40;99.90;;;;;;5054589;28;20041;-67
2022/06/22 03:21:00;;;;;;;8.57;4.50;;;10.30;99.90;;;;;;5052247;28;20049;-67
2022/06/22 03:23:34;;;;;;;10.38;4.78;;;10.30;99.90;;;;;;5052880;28;20051;-67
2022/06/22 03:26:25;;;;;;;7.25;4.47;;;10.30;99.90;;;;;;5053752;28;20037;-67
2022/06/22 03:29:13;;;;;;;8.43;4.82;;;10.30;99.90;;;;;;5052949;28;20506;-67
2022/06/22 03:31:45;;;;;;;9.73;4.63;;;11.30;99.90;;;;;;5054137;28;20045;-67
2022/06/22 03:34:17;;;;;;;7.40;4.82;;;10.30;99.90;;;;;;5052010;28;20138;-67
2022/06/22 03:36:47;;;;;;;9.15;5.10;;;10.30;99.90;;;;;;5053992;28;20044;-67
2022/06/22 03:39:16;;;;;;;7.68;4.60;;;10.30;99.90;;;;;;5052872;28;20367;-67
2022/06/22 03:41:57;;;;;;;9.38;5.18;;;10.40;99.90;;;;;;5053282;28;20043;-67
2022/06/22 03:44:57;;;;;;;9.70;6.15;;;10.40;99.90;;;;;;5052903;28;20040;-67
2022/06/22 03:47:39;;;;;;;18.15;11.55;;;10.30;99.90;;;;;;5049423;28;20057;-67
2022/06/22 03:50:12;;;;;;;14.50;10.18;;;10.30;99.90;;;;;;5051675;28;20073;-67
2022/06/22 03:52:49;;;;;;;17.15;9.55;;;10.50;99.90;;;;;;5053600;28;20090;-67
2022/06/22 03:55:38;;;;;;;13.90;9.00;;;10.30;99.90;;;;;;5035004;28;20044;-67
2022/06/22 03:58:06;;;;;;;14.57;9.15;;;10.50;99.90;;;;;;5053058;28;20437;-67
2022/06/22 04:00:34;;;;;;;15.10;9.48;;;10.40;99.90;;;;;;5036092;28;20033;-67
2022/06/22 04:03:03;;;;;;;14.93;9.52;;;10.90;99.90;;;;;;5052391;28;20045;-67
2022/06/22 04:05:33;;;;;;;15.57;9.25;;;10.80;99.90;;;;;;5053763;28;20041;-67
2022/06/22 04:08:00;;;;;;;12.73;8.50;;;10.60;99.90;;;;;;5051592;28;20120;-67
2022/06/22 04:10:36;;;;;;;13.35;8.68;;;10.60;99.90;;;;;;5051414;28;20490;-67
2022/06/22 04:13:09;;;;;;;13.55;8.82;;;10.70;99.90;;;;;;5051594;28;20045;-67
2022/06/22 04:15:41;;;;;;;12.48;8.30;;;10.80;99.90;;;;;;5052169;28;20045;-67
2022/06/22 04:18:28;;;;;;;12.13;7.40;;;10.90;99.90;;;;;;5051856;28;20496;-67
2022/06/22 04:21:11;;;;;;;14.93;7.43;;;10.90;99.90;;;;;;5051463;28;20056;-67
2022/06/22 04:23:41;;;;;;;11.77;7.55;;;11.00;99.90;;;;;;5034658;28;20532;-67
2022/06/22 04:26:14;;;;;;;13.32;7.63;;;11.00;99.90;;;;;;5050308;28;20041;-67
2022/06/22 04:28:41;;;;;;;13.55;8.13;;;;;;;;;;5051860;28;20040;-67
2022/06/22 04:31:10;;;;;;;12.07;7.28;;;;;;;;;;5051763;28;20040;-67
2022/06/22 04:33:42;;;;;;;12.27;7.30;;;;;;;;;;5051684;28;20044;-67
2022/06/22 04:36:16;;;;;;;16.85;9.30;;;;;;;;;;5052602;28;20083;-67
2022/06/22 04:38:44;;;;;;;11.98;7.97;;;;;;;;;;5052138;28;20045;-67
2022/06/22 04:41:16;;;;;;;15.05;7.88;;;;;;;;;;5051621;28;20036;-67
2022/06/22 04:43:42;;;;;;;11.63;8.32;;;;;;;;;;5051880;28;20084;-67
2022/06/22 04:46:14;;;;;;;10.23;7.82;;;11.70;99.90;;;;;;5033683;28;20061;-67
2022/06/22 04:48:41;;;;;;;10.90;7.75;;;;;;;;;;5052613;28;20477;-67
2022/06/22 04:51:12;;;;;;;13.30;9.00;;;;;;;;;;5034355;28;20044;-67
2022/06/22 04:53:46;;;;;;;10.13;7.80;;;;;;;;;;5050688;28;20546;-67
2022/06/22 04:56:14;;;;;;;14.48;10.45;;;;;;;;;;5052480;28;20032;-67
2022/06/22 04:58:52;;;;;;;11.80;10.40;;;12.30;99.90;;;;;;5051991;28;20501;-67
2022/06/22 05:01:23;;;;;;;12.05;10.57;;;12.40;99.90;;;;;;5052543;28;20102;-67
2022/06/22 05:03:53;;;;;;;11.65;9.40;;;12.40;99.90;;;;;;5052119;28;20037;-67
2022/06/22 05:06:28;;;;;;;12.70;9.23;;;12.60;99.90;;;;;;5052185;28;20053;-67
2022/06/22 05:09:23;;;;;;;13.65;10.82;;;12.70;99.90;;;;;;5051933;28;20521;-67
2022/06/22 05:11:49;;;;;;;14.23;9.97;;;13.00;99.90;;;;;;5051966;28;20053;-67
2022/06/22 05:14:28;;;;;;;12.95;9.27;;;13.10;99.90;;;;;;5050262;28;20300;-67
2022/06/22 05:17:02;;;;;;;14.43;10.88;;;13.40;99.90;;;;;;5050635;28;20045;-67
2022/06/22 05:19:39;;;;;;;13.50;9.63;;;13.40;99.90;;;;;;5051024;28;20053;-67
2022/06/22 05:22:15;;;;;;;14.85;8.73;;;13.60;99.90;;;;;;5051629;28;20048;-67
2022/06/22 05:24:45;;;;;;;12.27;8.85;;;13.80;99.90;;;;;;5052449;28;20064;-67
2022/06/22 05:27:14;;;;;;;12.30;8.70;;;13.90;99.90;;;;;;5050285;28;20052;-67
2022/06/22 05:30:05;;;;;;;14.80;8.70;;;14.10;99.90;;;;;;5050905;28;20497;-67
2022/06/22 05:32:33;;;;;;;13.55;9.35;;;;;;;;;;5052101;28;20041;-67
2022/06/22 05:35:00;;;;;;;15.18;10.07;;;14.40;99.90;;;;;;5049810;28;20108;-67
2022/06/22 05:37:31;;;;;;;12.40;8.55;;;;;;;;;;5053578;28;20098;-68
2022/06/22 05:39:57;;;;;;;13.27;8.75;;;;;;;;;;5054725;28;20116;-67
2022/06/22 05:42:24;;;;;;;13.52;7.70;;;;;;;;;;5054518;28;20033;-67
2022/06/22 05:44:52;;;;;;;10.57;7.53;;;15.10;99.90;;;;;;5055660;28;20043;-68
2022/06/22 05:47:28;;;;;;;14.18;8.18;;;;;;;;;;5054578;28;20085;-67
2022/06/22 05:50:13;;;;;;;11.88;6.93;;;;;;;;;;5053747;28;20048;-68
2022/06/22 05:52:42;;;;;;;11.85;7.32;;;;;;;;;;5056140;28;20052;-68
2022/06/22 05:55:14;;;;;;;9.38;7.03;;;;;;;;;;5055045;28;20044;-67
2022/06/22 05:57:42;;;;;;;12.13;5.95;;;;;;;;;;5054866;28;20390;-68
2022/06/22 06:00:08;;;;;;;12.02;5.43;;;;;;;;;;5052817;28;20563;-67
2022/06/22 06:02:52;;;;;;;12.65;5.40;;;16.30;99.90;;;;;;5044553;28;20048;-67
2022/06/22 06:05:24;;;;;;;13.50;6.07;;;16.40;99.90;;;;;;5047585;28;20033;-67
2022/06/22 06:07:53;;;;;;;10.50;5.65;;;16.50;99.90;;;;;;5050131;28;20497;-67
2022/06/22 06:10:28;;;;;;;14.38;7.40;;;16.60;99.90;;;;;;5049485;28;20545;-67
2022/06/22 06:13:04;;;;;;;10.30;5.97;;;16.80;99.90;;;;;;5041580;28;20045;-67
2022/06/22 06:15:36;;;;;;;12.98;6.05;;;16.90;99.90;;;;;;5051314;28;20577;-67
2022/06/22 06:18:05;;;;;;;9.55;5.97;;;16.90;99.90;;;;;;5051541;28;20515;-67
2022/06/22 06:20:38;;;;;;;10.45;6.63;;;17.00;99.90;;;;;;5034906;28;20052;-67
2022/06/22 06:23:17;;;;;;;9.32;6.32;;;17.00;99.90;;;;;;5032780;28;20099;-67
2022/06/22 06:28:59;;;;;;;7.90;4.78;;;17.10;99.90;;;;;;5037549;28;20109;-68
2022/06/22 06:31:31;;;;;;;9.77;6.00;;;17.20;99.90;;;;;;5051930;28;20520;-68
2022/06/22 06:33:59;;;;;;;9.85;6.45;;;17.10;99.90;;;;;;5045676;28;20478;-65
2022/06/22 06:36:44;;;;;;;8.73;4.90;;;17.10;99.90;;;;;;5049453;28;20090;-66
2022/06/22 06:39:15;;;;;;;11.25;5.32;;;17.10;99.90;;;;;;5049779;28;20041;-66
2022/06/22 06:41:47;;;;;;;11.32;4.78;;;17.10;99.90;;;;;;5050982;28;20041;-66
2022/06/22 06:44:18;;;;;;;9.70;5.20;;;17.20;99.90;;;;;;5040180;28;20751;-65
2022/06/22 06:46:54;;;;;;;11.35;6.05;;;17.30;99.90;;;;;;5039218;28;20057;-66
2022/06/22 06:49:32;;;;;;;8.57;4.47;;;17.40;99.90;;;;;;5030487;28;20179;-66
2022/06/22 06:52:18;;;;;;;8.45;4.63;;;17.50;99.90;;;;;;5031135;28;20041;-65
2022/06/22 06:55:04;;;;;;;13.77;4.30;;;17.60;99.90;;;;;;5044161;28;20092;-65
2022/06/22 06:57:30;;;;;;;9.15;4.88;;;17.70;99.90;;;;;;5040886;28;20136;-66
2022/06/22 07:00:00;;;;;;;10.43;5.15;;;17.70;99.90;;;;;;5029481;28;20041;-66
2022/06/22 07:02:33;;;;;;;10.55;4.85;;;17.80;99.90;;;;;;5027734;28;20099;-67
2022/06/22 07:05:03;;;;;;;9.32;4.32;;;17.80;99.90;;;;;;5030173;28;20434;-65
2022/06/22 07:07:47;;;;;;;6.57;3.88;;;17.80;99.90;;;;;;5031192;28;20470;-66
2022/06/22 07:10:36;;;;;;;6.17;3.43;;;17.80;99.90;;;;;;5032164;28;20080;-66
2022/06/22 07:13:11;;;;;;;12.23;5.07;;;18.00;99.90;;;;;;5037570;28;20395;-66
2022/06/22 07:15:41;;;;;;;9.60;4.57;;;18.00;99.90;;;;;;5050774;28;20103;-66
2022/06/22 07:18:29;;;;;;;9.60;4.05;;;18.10;99.90;;;;;;5045702;28;20060;-66
2022/06/22 07:21:14;;;;;;;10.93;5.30;;;18.30;99.90;;;;;;5025577;28;20037;-66
2022/06/22 07:24:01;;;;;;;10.00;4.25;;;18.30;99.90;;;;;;5046240;28;20052;-66
2022/06/22 07:26:37;;;;;;;11.38;3.97;;;18.20;99.90;;;;;;5049219;28;20041;-67
2022/06/22 07:29:09;;;;;;;11.90;4.60;;;18.30;99.90;;;;;;5054455;28;20132;-67
2022/06/22 07:31:49;;;;;;;7.60;3.72;;;18.30;99.90;;;;;;5037514;28;20042;-65
2022/06/22 07:34:50;;;;;;;11.27;4.05;;;18.30;99.90;;;;;;5040959;28;20049;-66
2022/06/22 07:37:28;;;;;;;8.98;4.32;;;18.40;99.90;;;;;;5047679;28;20597;-66
2022/06/22 07:40:01;;;;;;;10.73;4.38;;;;;;;;;;5067651;28;20056;-66
2022/06/22 07:42:26;;;;;;;9.98;4.40;;;18.70;99.90;;;;;;5057664;28;20069;-66
2022/06/22 07:44:53;;;;;;;7.95;3.75;;;18.90;99.90;;;;;;5058249;28;20048;-66
2022/06/22 07:47:40;;;;;;;7.82;4.10;;;18.60;99.90;;;;;;5043569;28;20059;-66
2022/06/22 07:50:09;;;;;;;6.40;3.60;;;19.40;99.90;;;;;;5039211;28;20118;-67
2022/06/22 07:52:41;;;;;;;9.55;3.45;;;18.80;99.90;;;;;;5056542;28;20051;-66
2022/06/22 07:55:36;;;;;;;7.85;3.40;;;18.80;99.90;;;;;;5056509;28;20048;-65
2022/06/22 07:58:18;;;;;;;10.93;4.28;;;18.80;99.90;;;;;;5031795;28;20040;-66
2022/06/22 08:00:47;;;;;;;9.90;3.90;;;19.20;99.90;;;;;;5059512;28;20428;-66
2022/06/22 08:03:34;;;;;;;7.75;4.20;;;18.80;99.90;;;;;;5047376;28;20034;-66
2022/06/22 08:06:05;;;;;;;11.88;4.05;;;19.00;99.90;;;;;;5043601;28;20040;-66
2022/06/22 08:08:40;;;;;;;12.85;5.20;;;19.00;99.90;;;;;;5061962;28;20056;-66
2022/06/22 08:11:22;;;;;;;10.40;4.55;;;19.20;99.90;;;;;;5060961;28;20044;-66
2022/06/22 08:14:09;;;;;;;9.10;4.55;;;19.20;99.90;;;;;;5048769;28;20811;-67
2022/06/22 08:16:43;;;;;;;9.48;3.97;;;19.30;99.90;;;;;;5054226;28;20033;-67
2022/06/22 08:19:10;;;;;;;8.37;3.27;;;19.30;99.90;;;;;;5041067;28;20365;-66
2022/06/22 08:21:42;;;;;;;6.90;4.00;;;19.40;99.90;;;;;;5044752;28;20037;-66
2022/06/22 08:24:11;;;;;;;8.95;4.63;;;19.40;99.90;;;;;;5050909;28;20378;-68
2022/06/22 08:26:39;;;;;;;12.00;4.50;;;;;;;;;;5038047;28;20130;-66
2022/06/22 08:29:06;;;;;;;8.02;4.38;;;;;;;;;;5042592;28;20117;-66
2022/06/22 08:31:35;;;;;;;8.05;4.70;;;;;;;;;;5050064;28;20352;-67
2022/06/22 08:34:03;;;;;;;10.25;4.28;;;;;;;;;;5034045;28;20044;-67
2022/06/22 08:36:31;;;;;;;9.63;4.50;;;;;;;;;;5042291;28;20405;-67
2022/06/22 08:39:18;;;;;;;10.05;5.05;;;19.80;99.90;;;;;;5045958;28;20041;-66
2022/06/22 08:42:00;;;;;;;9.38;4.82;;;;;;;;;;5049182;28;20041;-66
2022/06/22 08:44:35;;;;;;;11.13;5.60;;;;;;;;;;5041258;28;20051;-67
2022/06/22 08:47:01;;;;;;;15.40;6.03;;;19.90;99.90;;;;;;5044850;28;20234;-67
2022/06/22 08:49:48;;;;;;;8.90;5.15;;;;;;;;;;5036556;28;20135;-67
2022/06/22 08:52:14;;;;;;;9.90;5.90;;;;;;;;;;5030870;28;20085;-66
2022/06/22 08:54:47;;;;;;;11.13;5.38;;;;;;;;;;5049079;28;20080;-66
2022/06/22 08:57:26;;;;;;;11.47;6.70;;;20.00;99.90;;;;;;5045127;28;20119;-66
2022/06/22 09:00:30;;;;;;;16.02;8.40;;;20.10;99.90;;;;;;5045489;28;20287;-64
2022/06/22 09:03:27;;;;;;;12.82;7.00;;;20.10;99.90;;;;;;5034414;28;20058;-67
2022/06/22 09:06:14;;;;;;;10.75;6.72;;;20.10;99.90;;;;;;5041493;28;20104;-69
2022/06/22 09:08:54;;;;;;;11.13;6.47;;;20.10;99.90;;;;;;5030889;28;20069;-67
2022/06/22 09:11:29;;;;;;;9.25;4.68;;;20.20;99.90;;;;;;5044873;28;20717;-74
2022/06/22 09:14:13;;;;;;;10.90;5.88;;;20.20;99.90;;;;;;5029376;28;20065;-71
2022/06/22 09:17:02;;;;;;;8.90;5.88;;;20.30;99.90;;;;;;5029907;28;20041;-71
2022/06/22 09:19:43;;;;;;;11.48;6.07;;;20.30;99.90;;;;;;5031626;28;20075;-73
2022/06/22 09:22:16;;;;;;;11.60;5.10;;;20.30;99.90;;;;;;5035288;28;20040;-72
2022/06/22 09:25:02;;;;;;;9.20;6.15;;;20.30;99.90;;;;;;5030142;28;20048;-69
2022/06/22 09:27:42;;;;;;;8.98;5.10;;;20.40;99.90;;;;;;5033281;28;20120;-70
2022/06/22 09:30:23;;;;;;;11.13;5.72;;;20.50;99.90;;;;;;5028855;28;20065;-73
2022/06/22 09:33:11;;;;;;;10.55;5.80;;;20.60;99.90;;;;;;5046214;28;20037;-72
2022/06/22 09:36:06;;;;;;;9.80;4.68;;;20.70;99.90;;;;;;5049735;28;20036;-71
2022/06/22 09:38:56;;;;;;;11.93;5.07;;;20.70;99.90;;;;;;5040841;28;20072;-73
2022/06/22 09:41:24;;;;;;;8.25;4.97;;;20.70;99.90;;;;;;5042090;28;20526;-72
2022/06/22 09:44:14;;;;;;;10.00;4.32;;;20.70;99.90;;;;;;5047914;28;20492;-71
2022/06/22 09:46:46;;;;;;;10.50;5.10;;;20.70;99.90;;;;;;5038374;28;20128;-72
2022/06/22 09:49:35;;;;;;;9.50;4.63;;;20.70;99.90;;;;;;5031325;28;20056;-70
2022/06/22 09:52:14;;;;;;;8.70;4.80;;;20.70;99.90;;;;;;5013593;28;20038;-70
2022/06/22 09:57:47;;;;;;;11.32;5.60;;;20.60;99.90;;;;;;5033306;28;20117;-73
2022/06/22 10:00:20;;;;;;;11.70;5.30;;;20.70;99.90;;;;;;5030781;28;20044;-74
2022/06/22 10:02:55;;;;;;;12.88;5.90;;;20.70;99.90;;;;;;5044688;28;20479;-73
2022/06/22 10:05:58;;;;;;;10.88;5.03;;;20.70;99.90;;;;;;5051048;28;20040;-75
2022/06/22 10:09:03;;;;;;;10.45;5.38;;;20.70;99.90;;;;;;5050019;28;20048;-74
2022/06/22 10:12:00;;;;;;;9.35;5.50;;;20.60;99.90;;;;;;5029833;28;20152;-73
2022/06/22 10:14:44;;;;;;;9.75;5.15;;;20.60;99.90;;;;;;5013284;28;20053;-74
2022/06/22 10:17:16;;;;;;;10.90;5.22;;;20.60;99.90;;;;;;5015839;28;20033;-73
2022/06/22 10:19:44;;;;;;;8.63;4.80;;;20.60;99.90;;;;;;5030659;28;20064;-73
2022/06/22 10:22:14;;;;;;;12.75;5.07;;;20.60;99.90;;;;;;5031256;28;20040;-74
2022/06/22 10:25:01;;;;;;;10.98;4.50;;;20.70;99.90;;;;;;5053638;28;20125;-66
2022/06/22 10:27:47;;;;;;;8.60;4.28;;;20.80;99.90;;;;;;5038393;28;20045;-65
2022/06/22 10:30:36;;;;;;;13.93;5.85;;;20.90;99.90;;;;;;5035627;28;20037;-66
2022/06/22 10:33:27;;;;;;;10.50;4.38;;;20.90;99.90;;;;;;5035188;28;20474;-66
2022/06/22 10:36:20;;;;;;;9.15;4.80;;;20.90;99.90;;;;;;5054525;28;20090;-65
2022/06/22 10:39:08;;;;;;;7.68;4.60;;;20.90;99.90;;;;;;5031377;28;20041;-65
2022/06/22 10:45:09;;;;;;;9.70;5.10;;;20.80;99.90;;;;;;5054574;28;20060;-65
2022/06/22 10:48:03;;;;;;;8.77;4.55;;;20.90;99.90;;;;;;5051143;28;20497;-65
2022/06/22 10:50:47;;;;;;;9.63;4.72;;;21.00;99.90;;;;;;5053065;28;20044;-65
2022/06/22 10:54:20;;;;;;;10.32;4.45;;;21.00;99.90;;;;;;5053354;28;20049;-65
2022/06/22 10:57:07;;;;;;;12.50;5.15;;;21.10;99.90;;;;;;5012810;28;20096;-67
2022/06/22 11:00:14;;;;;;;12.15;5.20;;;21.10;99.90;;;;;;5012725;28;20388;-66
2022/06/22 11:02:55;;;;;;;8.68;4.55;;;21.20;99.90;;;;;;5017188;28;20091;-65
2022/06/22 11:05:39;;;;;;;10.95;4.53;;;21.20;99.90;;;;;;5035272;28;20041;-66
2022/06/22 11:08:32;;;;;;;7.40;4.47;;;21.30;99.90;;;;;;5033165;28;20168;-66
2022/06/22 11:11:13;;;;;;;10.45;4.65;;;21.30;99.90;;;;;;5046412;28;20052;-67
2022/06/22 11:13:49;;;;;;;9.63;4.60;;;21.40;99.90;;;;;;5053663;28;20047;-66
2022/06/22 11:16:26;;;;;;;9.27;4.63;;;21.50;99.90;;;;;;5053232;28;20041;-66
2022/06/22 11:19:05;;;;;;;9.32;4.90;;;21.40;99.90;;;;;;5052260;28;20059;-66
2022/06/22 11:21:52;;;;;;;12.13;4.80;;;21.50;99.90;;;;;;5054402;28;20490;-66
2022/06/22 11:24:30;;;;;;;9.35;4.53;;;21.50;99.90;;;;;;5053209;28;20045;-66
2022/06/22 11:33:58;;;;;;;18.90;5.47;;;21.60;99.90;;;;;;5051854;28;20053;-66
2022/06/22 11:36:43;;;;;;;13.20;5.50;;;21.70;99.90;;;;;;5052821;28;20041;-66
2022/06/22 11:39:27;;;;;;;10.63;6.13;;;21.70;99.90;;;;;;5053821;28;20051;-66
2022/06/22 11:41:53;;;;;;;9.82;5.35;;;21.70;99.90;;;;;;5052299;28;20447;-67
2022/06/22 11:45:49;;;;;;;8.15;4.97;;;21.80;99.90;;;;;;5033115;28;20052;-65
2022/06/22 11:47:48;;;;;;;8.25;5.53;;;21.80;99.10;;;;;;5022819;28;20084;-67
2022/06/22 11:50:34;;;;;;;8.82;4.70;;;22.00;98.90;;;;;;5034043;28;20099;-66
2022/06/22 11:53:39;;;;;;;10.65;5.70;;;22.00;99.00;;;;;;5032206;28;20077;-67
2022/06/22 11:56:30;;;;;;;10.65;5.55;;;22.00;98.00;;;;;;5037959;28;20038;-66
2022/06/22 11:59:10;;;;;;;8.38;5.25;;;21.90;99.60;;;;;;5051999;28;20040;-68
2022/06/22 12:01:45;;;;;;;11.85;5.90;;;22.00;99.60;;;;;;5053138;28;20029;-65
2022/06/22 12:04:19;;;;;;;;;;;22.30;99.90;;;;;;5052460;28;20157;-65
2022/06/22 12:07:09;;;;;;;8.27;5.53;;;22.20;99.70;;;;;;5053242;28;19938;-67
2022/06/22 12:10:17;;;;;;;11.00;6.13;;;22.20;99.90;;;;;;5051919;28;20045;-67
2022/06/22 12:12:46;;;;;;;11.77;7.05;;;;;;;;;;5041301;28;20081;-68
2022/06/22 12:15:26;;;;;;;10.82;6.28;;;22.20;99.30;;;;;;5050566;28;20126;-66
2022/06/22 12:18:27;;;;;;;12.15;7.22;;;22.30;99.80;;;;;;5049866;28;20439;-67
2022/06/22 12:21:25;;;;;;;11.30;7.35;;;22.30;99.90;;;;;;5018714;28;20049;-66
2022/06/22 12:24:10;;;;;;;11.68;7.20;;;22.30;99.90;;;;;;5033204;28;20073;-67
2022/06/22 12:27:04;;;;;;;12.65;7.75;;;22.20;99.90;;;;;;5031632;28;20107;-67
2022/06/22 12:29:47;;;;;;;10.52;6.22;;;22.20;99.90;;;;;;5031299;28;20056;-67
2022/06/22 12:32:27;;;;;;;10.38;7.35;;;22.10;99.90;;;;;;5033341;28;20041;-66
2022/06/22 12:35:13;;;;;;;11.90;7.20;;;22.30;99.90;;;;;;5031077;28;20140;-67
2022/06/22 12:37:55;;;;;;;10.98;6.80;;;22.30;99.90;;;;;;5042789;28;20053;-66
2022/06/22 12:40:50;;;;;;;10.98;7.07;;;22.40;99.90;;;;;;5050005;28;20098;-65
2022/06/22 12:43:37;;;;;;;11.48;7.57;;;22.40;99.90;;;;;;5034111;28;20055;-67
2022/06/22 12:46:21;;;;;;;11.80;7.25;;;22.40;99.90;;;;;;5046100;28;20097;-67
2022/06/22 12:49:13;;;;;;;9.43;6.57;;;22.40;99.90;;;;;;5048131;28;20045;-66
2022/06/22 12:51:51;;;;;;;12.48;6.22;;;22.50;99.90;;;;;;5034686;28;20506;-66
2022/06/22 12:54:28;;;;;;;11.43;6.70;;;22.40;99.90;;;;;;5029409;28;20041;-67
2022/06/22 12:57:12;;;;;;;9.77;5.85;;;22.40;99.90;;;;;;5049361;28;20082;-67
2022/06/22 12:59:46;;;;;;;10.63;6.18;;;21.80;99.90;;;;;;5052230;28;20504;-67
2022/06/22 13:02:15;;;;;;;11.27;6.85;;;22.40;99.90;;;;;;5039696;28;20478;-66
2022/06/22 13:04:44;;;;;;;10.13;6.75;;;22.50;99.90;;;;;;5042737;28;20386;-66
2022/06/22 13:07:14;;;;;;;10.60;6.70;;;22.50;99.90;;;;;;5050869;28;20175;-66
2022/06/22 13:09:41;;;;;;;10.23;6.68;;;22.50;99.90;;;;;;5035024;28;20394;-67
2022/06/22 13:12:20;;;;;;;12.57;6.63;;;22.50;99.90;;;;;;5051140;28;20505;-67
2022/06/22 13:15:05;;;;;;;10.00;6.13;;;22.60;99.90;;;;;;5050869;28;20052;-67
2022/06/22 13:17:54;;;;;;;13.68;6.88;;;22.60;99.90;;;;;;5051285;28;20044;-70
2022/06/22 13:20:52;;;;;;;10.55;6.60;;;22.90;99.90;;;;;;5033326;28;20056;-66
2022/06/22 13:23:23;;;;;;;8.13;4.93;;;22.70;99.90;;;;;;5015345;28;20490;-66
2022/06/22 13:26:17;;;;;;;10.05;5.50;;;22.60;99.90;;;;;;5031266;28;20056;-70
2022/06/22 13:29:10;;;;;;;12.55;5.88;;;22.60;99.90;;;;;;5032179;28;20041;-67
2022/06/22 13:31:40;;;;;;;10.32;6.15;;;22.50;99.90;;;;;;5033386;28;20041;-65
2022/06/22 13:34:19;;;;;;;12.32;6.78;;;22.40;99.90;;;;;;5035160;28;20044;-68
2022/06/22 13:37:06;;;;;;;9.88;5.22;;;22.30;99.90;;;;;;5050243;28;20041;-65
2022/06/22 13:43:25;;;;;;;10.25;5.75;;;22.10;99.90;;;;;;5035265;28;20036;-67
2022/06/22 13:46:10;;;;;;;11.15;5.43;;;22.20;99.90;;;;;;5038684;28;20054;-66
2022/06/22 13:48:40;;;;;;;13.25;6.80;;;22.20;99.90;;;;;;5050713;28;20526;-66
2022/06/22 13:51:51;;;;;;;8.98;5.75;;;22.10;99.90;;;;;;5027808;28;20482;-66
2022/06/22 13:54:44;;;;;;;12.68;6.65;;;22.00;99.90;;;;;;5030994;28;20033;-66
2022/06/22 13:57:10;;;;;;;10.93;5.78;;;22.10;99.90;;;;;;5037973;28;20049;-66
2022/06/22 14:00:01;;;;;;;14.38;6.85;;;22.00;99.90;;;;;;5048576;28;20052;-67
2022/06/22 14:02:45;;;;;;;10.95;5.80;;;22.10;99.90;;;;;;5045109;28;20043;-68
2022/06/22 14:05:55;;;;;;;10.82;6.22;;;22.00;99.90;;;;;;5029134;28;20045;-67
2022/06/22 14:08:27;;;;;;;10.40;6.35;;;22.20;99.90;;;;;;5002027;28;20053;-69
2022/06/22 14:11:06;;;;;;;11.55;6.75;;;22.40;99.90;;;;;;5008693;28;20046;-69
2022/06/22 14:13:40;;;;;;;11.10;6.32;;;22.40;99.90;;;;;;5034618;28;20053;-69
2022/06/22 14:16:21;;;;;;;10.07;5.60;;;22.50;99.90;;;;;;5054848;28;20504;-68
2022/06/22 14:19:14;;;;;;;10.23;5.95;;;22.30;99.90;;;;;;5058457;28;20053;-68
2022/06/22 14:21:47;;;;;;;8.60;5.25;;;22.40;99.90;;;;;;5048879;28;20041;-68
2022/06/22 14:24:23;;;;;;;9.10;5.50;;;22.30;99.90;;;;;;5063576;28;20101;-69
2022/06/22 14:27:16;;;;;;;8.95;5.10;;;22.50;99.90;;;;;;5051780;28;20049;-69